createdAt,value
2022-08-23T00:01:46.698Z,0.30
2022-08-23T00:04:19.658Z,0.37
2022-08-23T00:06:49.587Z,0.40
2022-08-23T00:09:19.277Z,0.20
2022-08-23T00:11:51.636Z,0.30
2022-08-23T00:14:22.324Z,0.40
2022-08-23T00:16:51.598Z,0.37
2022-08-23T00:19:21.584Z,0.30
2022-08-23T00:21:51.566Z,0.30
2022-08-23T00:24:20.849Z,0.20
2022-08-23T00:26:58.548Z,0.20
2022-08-23T00:29:31.118Z,0.20
2022-08-23T00:31:59.696Z,0.27
2022-08-23T00:34:28.420Z,0.20
2022-08-23T00:36:57.538Z,0.30
2022-08-23T00:39:26.956Z,0.20
2022-08-23T00:42:01.480Z,0.20
2022-08-23T00:44:52.500Z,0.10
2022-08-23T00:47:44.977Z,0.20
2022-08-23T00:50:24.439Z,0.20
2022-08-23T00:53:03.298Z,0.40
2022-08-23T00:55:32.839Z,0.30
2022-08-23T00:58:03.436Z,0.30
2022-08-23T01:00:32.363Z,0.30
2022-08-23T01:03:02.210Z,0.30
2022-08-23T01:05:38.966Z,0.30
2022-08-23T01:08:07.531Z,0.30
2022-08-23T01:10:42.123Z,0.20
2022-08-23T01:13:16.178Z,0.23
2022-08-23T01:15:49.717Z,0.30
2022-08-23T01:18:22.467Z,0.30
2022-08-23T01:20:57.025Z,0.23
2022-08-23T01:23:37.572Z,0.40
2022-08-23T01:26:07.319Z,0.40
2022-08-23T01:28:40.896Z,0.20
2022-08-23T01:31:16.110Z,0.30
2022-08-23T01:33:47.192Z,0.33
2022-08-23T01:36:17.422Z,0.30
2022-08-23T01:38:48.188Z,0.23
2022-08-23T01:41:16.507Z,0.40
2022-08-23T01:43:44.913Z,0.30
2022-08-23T01:46:16.779Z,0.30
2022-08-23T01:48:46.389Z,0.30
2022-08-23T01:51:17.727Z,0.20
2022-08-23T01:53:48.668Z,0.20
2022-08-23T01:56:19.950Z,0.30
2022-08-23T01:59:07.451Z,0.20
2022-08-23T02:01:41.422Z,0.20
2022-08-23T02:04:10.050Z,0.30
2022-08-23T02:06:39.009Z,0.20
2022-08-23T02:09:17.491Z,0.30
2022-08-23T02:11:48.317Z,0.20
2022-08-23T02:14:21.312Z,0.30
2022-08-23T02:17:04.046Z,0.17
2022-08-23T02:19:38.981Z,0.20
2022-08-23T02:22:09.109Z,0.20
2022-08-23T02:24:42.647Z,0.40
2022-08-23T02:27:11.252Z,0.20
2022-08-23T02:29:44.623Z,0.30
2022-08-23T02:32:16.117Z,0.20
2022-08-23T02:34:45.045Z,0.30
2022-08-23T02:37:32.723Z,0.20
2022-08-23T02:40:02.573Z,0.20
2022-08-23T02:42:31.069Z,0.30
2022-08-23T02:45:00.489Z,0.20
2022-08-23T02:47:29.318Z,0.20
2022-08-23T02:50:11.071Z,0.30
2022-08-23T02:52:39.424Z,0.20
2022-08-23T02:55:10.226Z,0.30
2022-08-23T02:57:40.298Z,0.43
2022-08-23T03:00:13.207Z,0.20
2022-08-23T03:02:42.308Z,0.20
2022-08-23T03:05:12.369Z,0.30
2022-08-23T03:07:41.517Z,0.40
2022-08-23T03:10:13.187Z,0.47
2022-08-23T03:12:47.784Z,0.20
2022-08-23T03:15:16.346Z,0.20
2022-08-23T03:17:44.958Z,0.30
2022-08-23T03:20:13.841Z,0.20
2022-08-23T03:22:54.428Z,0.10
2022-08-23T03:25:27.914Z,0.40
2022-08-23T03:28:35.362Z,0.30
2022-08-23T03:31:05.227Z,0.27
2022-08-23T03:33:39.292Z,0.20
2022-08-23T03:36:10.193Z,0.30
2022-08-23T03:38:40.030Z,0.30
2022-08-23T03:41:12.153Z,0.17
2022-08-23T03:43:40.878Z,0.30
2022-08-23T03:46:09.877Z,0.30
2022-08-23T03:48:41.545Z,0.20
2022-08-23T03:51:10.074Z,0.27
2022-08-23T03:53:40.373Z,0.20
2022-08-23T03:56:08.749Z,0.30
2022-08-23T03:58:38.390Z,0.17
2022-08-23T04:01:07.769Z,0.10
2022-08-23T04:03:36.116Z,0.40
2022-08-23T04:06:06.659Z,0.40
2022-08-23T04:08:34.936Z,0.10
2022-08-23T04:11:06.477Z,0.10
2022-08-23T04:13:36.279Z,0.10
2022-08-23T04:16:06.785Z,0.30
2022-08-23T04:18:36.721Z,0.20
2022-08-23T04:21:11.721Z,0.33
2022-08-23T04:23:42.328Z,0.20
2022-08-23T04:26:11.584Z,0.20
2022-08-23T04:28:40.954Z,0.20
2022-08-23T04:31:10.804Z,0.20
2022-08-23T04:33:42.018Z,0.20
2022-08-23T04:36:13.506Z,0.20
2022-08-23T04:38:41.970Z,0.20
2022-08-23T04:41:30.151Z,0.30
2022-08-23T04:43:59.694Z,0.30
2022-08-23T04:46:30.844Z,0.20
2022-08-23T04:49:02.253Z,0.30
2022-08-23T04:51:30.885Z,0.30
2022-08-23T04:53:59.433Z,0.30
2022-08-23T04:56:51.766Z,0.30
2022-08-23T04:59:22.797Z,0.20
2022-08-23T05:01:53.460Z,0.20
2022-08-23T05:04:22.100Z,0.30
2022-08-23T05:06:52.257Z,0.30
2022-08-23T05:09:25.157Z,0.30
2022-08-23T05:11:53.957Z,0.20
2022-08-23T05:14:24.057Z,0.20
2022-08-23T05:16:54.084Z,0.30
2022-08-23T05:19:25.132Z,0.20
2022-08-23T05:21:56.877Z,0.20
2022-08-23T05:24:35.249Z,0.10
2022-08-23T05:27:03.726Z,0.27
2022-08-23T05:29:32.277Z,0.30
2022-08-23T05:32:02.707Z,0.20
2022-08-23T05:34:31.437Z,0.20
2022-08-23T05:37:03.394Z,0.23
2022-08-23T05:39:37.635Z,0.20
2022-08-23T05:42:12.810Z,0.10
2022-08-23T05:44:42.686Z,0.20
2022-08-23T05:47:16.366Z,0.20
2022-08-23T05:49:59.087Z,0.20
2022-08-23T05:52:30.341Z,0.20
2022-08-23T05:54:58.740Z,0.10
2022-08-23T05:57:45.454Z,0.30
2022-08-23T06:00:15.340Z,0.20
2022-08-23T06:03:00.729Z,0.23
2022-08-23T06:05:29.576Z,0.20
2022-08-23T06:08:00.851Z,0.20
2022-08-23T06:10:29.303Z,0.27
2022-08-23T06:13:16.933Z,0.20
2022-08-23T06:15:45.527Z,0.20
2022-08-23T06:18:15.332Z,0.10
2022-08-23T06:20:44.582Z,0.40
2022-08-23T06:23:19.313Z,0.10
2022-08-23T06:25:47.676Z,0.20
2022-08-23T06:28:17.762Z,0.50
2022-08-23T06:30:47.960Z,0.70
2022-08-23T06:33:38.668Z,1.20
2022-08-23T06:36:25.820Z,2.20
2022-08-23T06:39:15.456Z,3.50
2022-08-23T06:42:37.140Z,4.38
2022-08-23T06:45:06.461Z,6.53
2022-08-23T06:47:40.575Z,4.65
2022-08-23T06:50:11.976Z,7.18
2022-08-23T06:52:59.001Z,5.57
2022-08-23T06:55:36.994Z,5.03
2022-08-23T06:58:22.731Z,3.95
2022-08-23T07:01:44.112Z,3.13
2022-08-23T07:04:20.230Z,2.58
2022-08-23T07:07:11.857Z,2.20
2022-08-23T07:09:42.166Z,1.88
2022-08-23T07:12:11.120Z,1.58
2022-08-23T07:14:44.251Z,1.40
2022-08-23T07:17:14.588Z,1.50
2022-08-23T07:19:44.216Z,1.30
2022-08-23T07:22:15.613Z,1.40
2022-08-23T07:24:44.329Z,1.20
2022-08-23T07:27:12.869Z,1.10
2022-08-23T07:29:59.901Z,1.20
2022-08-23T07:32:28.764Z,0.90
2022-08-23T07:34:58.974Z,0.80
2022-08-23T07:37:31.013Z,0.47
2022-08-23T07:40:01.227Z,0.40
2022-08-23T07:42:29.697Z,0.30
2022-08-23T07:44:59.422Z,0.47
2022-08-23T07:47:30.489Z,0.43
2022-08-23T07:50:00.721Z,0.30
2022-08-23T07:52:31.892Z,0.40
2022-08-23T07:55:00.458Z,0.40
2022-08-23T07:57:55.585Z,0.50
2022-08-23T08:00:47.674Z,0.30
2022-08-23T08:03:36.235Z,0.40
2022-08-23T08:06:36.446Z,0.50
2022-08-23T08:09:06.949Z,0.50
2022-08-23T08:11:37.092Z,0.50
2022-08-23T08:14:08.901Z,0.47
2022-08-23T08:16:44.369Z,0.60
2022-08-23T08:19:17.053Z,0.50
2022-08-23T08:22:05.893Z,0.40
2022-08-23T08:24:55.513Z,0.50
2022-08-23T08:27:23.795Z,0.40
2022-08-23T08:29:52.593Z,0.40
2022-08-23T08:32:21.360Z,0.50
2022-08-23T08:34:50.753Z,0.60
2022-08-23T08:37:19.381Z,0.47
2022-08-23T08:39:47.829Z,0.50
2022-08-23T08:42:45.743Z,0.60
2022-08-23T08:45:21.006Z,0.55
2022-08-23T08:47:52.511Z,0.68
2022-08-23T08:50:29.784Z,0.60
2022-08-23T08:53:08.905Z,0.63
2022-08-23T08:56:05.528Z,0.80
2022-08-23T08:58:44.672Z,0.70
2022-08-23T09:01:14.003Z,1.20
2022-08-23T09:03:43.063Z,0.90
2022-08-23T09:06:23.880Z,0.70
2022-08-23T09:09:10.018Z,0.85
2022-08-23T09:11:51.610Z,0.80
2022-08-23T09:14:44.436Z,0.82
2022-08-23T09:17:22.181Z,1.02
2022-08-23T09:19:54.136Z,0.98
2022-08-23T09:22:29.597Z,0.85
2022-08-23T09:24:59.710Z,0.82
2022-08-23T09:27:33.506Z,0.90
2022-08-23T09:30:07.100Z,0.73
2022-08-23T09:32:37.861Z,0.80
2022-08-23T09:35:17.347Z,0.98
2022-08-23T09:38:00.237Z,0.90
2022-08-23T09:40:38.959Z,1.10
2022-08-23T09:43:16.558Z,0.98
2022-08-23T09:45:59.115Z,0.90
2022-08-23T09:48:40.064Z,0.75
2022-08-23T09:51:19.888Z,0.82
2022-08-23T09:53:53.534Z,1.00
2022-08-23T09:56:26.382Z,0.95
2022-08-23T09:58:55.834Z,0.90
2022-08-23T10:01:39.957Z,1.13
2022-08-23T10:04:17.266Z,0.90
2022-08-23T10:06:48.112Z,0.90
2022-08-23T10:09:26.471Z,1.00
2022-08-23T10:11:55.329Z,0.90
2022-08-23T10:14:28.727Z,0.90
2022-08-23T10:17:11.212Z,1.20
2022-08-23T10:19:49.809Z,1.13
2022-08-23T10:22:22.199Z,1.00
2022-08-23T10:25:20.778Z,1.00
2022-08-23T10:28:20.280Z,0.82
2022-08-23T10:30:55.635Z,0.93
2022-08-23T10:33:34.045Z,1.00
2022-08-23T10:36:13.045Z,1.23
2022-08-23T10:38:46.908Z,1.10
2022-08-23T10:41:31.272Z,1.40
2022-08-23T10:44:10.272Z,1.02
2022-08-23T10:46:49.784Z,1.05
2022-08-23T10:49:20.143Z,1.13
2022-08-23T10:51:51.867Z,0.98
2022-08-23T10:54:46.051Z,0.95
2022-08-23T10:57:20.690Z,1.20
2022-08-23T10:59:53.081Z,1.00
2022-08-23T11:02:32.844Z,1.25
2022-08-23T11:05:27.177Z,1.10
2022-08-23T11:08:01.390Z,1.08
2022-08-23T11:10:56.158Z,1.20
2022-08-23T11:13:35.095Z,1.02
2022-08-23T11:16:13.860Z,1.27
2022-08-23T11:18:46.408Z,1.20
2022-08-23T11:21:51.146Z,1.30
2022-08-23T11:24:48.777Z,1.40
2022-08-23T11:27:36.865Z,1.27
2022-08-23T11:30:46.456Z,1.10
2022-08-23T11:33:21.539Z,1.08
2022-08-23T11:35:53.474Z,0.88
2022-08-23T11:38:56.234Z,1.20
2022-08-23T11:41:30.780Z,1.13
2022-08-23T11:44:20.895Z,1.08
2022-08-23T11:47:07.965Z,1.20
2022-08-23T11:50:01.242Z,1.13
2022-08-23T11:52:51.666Z,1.17
2022-08-23T11:55:49.297Z,1.13
2022-08-23T11:58:24.572Z,1.30
2022-08-23T12:01:07.749Z,1.08
2022-08-23T12:03:46.068Z,1.02
2022-08-23T12:06:31.789Z,1.02
2022-08-23T12:09:05.304Z,1.13
2022-08-23T12:12:14.819Z,1.27
2022-08-23T12:14:57.434Z,1.02
2022-08-23T12:17:57.521Z,1.00
2022-08-23T12:20:32.695Z,1.08
2022-08-23T12:23:13.272Z,1.20
2022-08-23T12:25:42.787Z,1.10
2022-08-23T12:28:39.451Z,1.20
2022-08-23T12:31:18.895Z,0.80
2022-08-23T12:34:00.208Z,1.25
2022-08-23T12:36:38.787Z,0.90
2022-08-23T12:39:15.842Z,1.10
2022-08-23T12:41:55.752Z,1.02
2022-08-23T12:44:30.752Z,1.30
2022-08-23T12:47:14.437Z,1.10
2022-08-23T12:49:43.142Z,1.52
2022-08-23T12:52:16.432Z,1.08
2022-08-23T12:54:47.590Z,1.30
2022-08-23T12:57:20.668Z,1.40
2022-08-23T13:00:17.042Z,1.13
2022-08-23T13:02:56.865Z,1.00
2022-08-23T13:05:33.990Z,1.30
2022-08-23T13:08:06.066Z,0.90
2022-08-23T13:10:35.073Z,1.10
2022-08-23T13:13:03.616Z,1.13
2022-08-23T13:15:46.044Z,0.98
2022-08-23T13:18:34.093Z,1.17
2022-08-23T13:21:28.042Z,1.20
2022-08-23T13:24:00.968Z,1.00
2022-08-23T13:26:42.488Z,1.40
2022-08-23T13:29:13.890Z,1.05
2022-08-23T13:31:53.847Z,0.98
2022-08-23T13:34:39.333Z,1.10
2022-08-23T13:37:21.675Z,1.40
2022-08-23T13:39:54.438Z,1.23
2022-08-23T13:42:48.447Z,1.20
2022-08-23T13:45:24.737Z,1.08
2022-08-23T13:47:58.260Z,1.20
2022-08-23T13:50:30.609Z,1.10
2022-08-23T13:53:15.812Z,1.20
2022-08-23T13:55:48.550Z,1.23
2022-08-23T13:58:27.354Z,1.17
2022-08-23T14:00:58.519Z,0.90
2022-08-23T14:03:28.113Z,1.33
2022-08-23T14:05:57.740Z,1.20
2022-08-23T14:08:26.095Z,1.17
2022-08-23T14:10:54.416Z,1.38
2022-08-23T14:13:25.773Z,1.25
2022-08-23T14:15:55.897Z,0.90
2022-08-23T14:18:25.324Z,1.17
2022-08-23T14:20:53.843Z,1.00
2022-08-23T14:23:23.676Z,1.10
2022-08-23T14:25:56.284Z,1.00
2022-08-23T14:28:29.585Z,1.08
2022-08-23T14:30:58.451Z,1.10
2022-08-23T14:33:26.812Z,0.98
2022-08-23T14:35:56.292Z,1.30
2022-08-23T14:38:27.026Z,1.10
2022-08-23T14:40:59.120Z,1.20
2022-08-23T14:43:28.380Z,1.10
2022-08-23T14:46:00.948Z,1.38
2022-08-23T14:48:29.811Z,1.08
2022-08-23T14:50:58.905Z,1.00
2022-08-23T14:53:30.686Z,1.10
2022-08-23T14:56:20.413Z,1.10
2022-08-23T14:58:48.268Z,1.15
2022-08-23T15:01:17.345Z,1.25
2022-08-23T15:03:46.452Z,1.10
2022-08-23T15:06:16.710Z,1.02
2022-08-23T15:08:46.971Z,1.20
2022-08-23T15:14:05.064Z,1.20
2022-08-23T15:16:33.665Z,1.08
2022-08-23T15:19:02.193Z,1.35
2022-08-23T15:21:30.536Z,1.20
2022-08-23T15:24:00.174Z,0.93
2022-08-23T15:26:31.337Z,0.85
2022-08-23T15:29:00.001Z,0.90
2022-08-23T15:31:29.744Z,1.10
2022-08-23T15:33:58.199Z,1.00
2022-08-23T15:36:28.121Z,0.82
2022-08-23T15:38:56.568Z,1.00
2022-08-23T15:41:28.205Z,0.93
2022-08-23T15:43:56.627Z,1.10
2022-08-23T15:46:26.646Z,1.25
2022-08-23T15:48:57.865Z,0.90
2022-08-23T15:51:26.561Z,1.20
2022-08-23T15:53:55.307Z,1.10
2022-08-23T15:56:32.849Z,0.82
2022-08-23T15:59:01.464Z,1.20
2022-08-23T16:01:34.749Z,1.13
2022-08-23T16:04:03.256Z,1.23
2022-08-23T16:06:36.300Z,0.90
2022-08-23T16:09:06.952Z,1.10
2022-08-23T16:11:36.753Z,1.20
2022-08-23T16:14:05.454Z,1.00
2022-08-23T16:16:39.094Z,1.15
2022-08-23T16:19:08.941Z,0.98
2022-08-23T16:21:38.228Z,1.35
2022-08-23T16:24:09.254Z,1.08
2022-08-23T16:26:41.841Z,1.10
2022-08-23T16:29:14.612Z,1.00
2022-08-23T16:31:43.217Z,1.20
2022-08-23T16:34:15.543Z,1.00
2022-08-23T16:36:45.737Z,0.98
2022-08-23T16:39:17.162Z,1.00
2022-08-23T16:41:47.045Z,1.10
2022-08-23T16:44:15.381Z,1.10
2022-08-23T16:46:44.343Z,1.08
2022-08-23T16:49:13.520Z,1.20
2022-08-23T16:51:41.823Z,1.20
2022-08-23T16:54:10.787Z,0.90
2022-08-23T16:56:40.984Z,1.23
2022-08-23T16:59:12.769Z,1.08
2022-08-23T17:01:47.197Z,1.17
2022-08-23T17:04:15.831Z,1.42
2022-08-23T17:06:44.564Z,1.08
2022-08-23T17:09:13.354Z,1.00
2022-08-23T17:11:43.799Z,1.05
2022-08-23T17:14:14.544Z,0.80
2022-08-23T17:16:44.200Z,1.10
2022-08-23T17:19:13.814Z,1.10
2022-08-23T17:21:43.941Z,0.90
2022-08-23T17:24:12.289Z,1.00
2022-08-23T17:26:41.041Z,1.15
2022-08-23T17:29:09.577Z,1.23
2022-08-23T17:31:40.142Z,0.90
2022-08-23T17:34:08.653Z,1.30
2022-08-23T17:36:39.773Z,1.02
2022-08-23T17:39:11.488Z,0.90
2022-08-23T17:41:44.986Z,0.95
2022-08-23T17:44:14.753Z,1.35
2022-08-23T17:46:46.636Z,0.80
2022-08-23T17:49:17.425Z,1.10
2022-08-23T17:51:46.469Z,0.93
2022-08-23T17:54:16.407Z,0.98
2022-08-23T17:56:50.399Z,0.90
2022-08-23T17:59:20.588Z,1.02
2022-08-23T18:01:50.563Z,1.08
2022-08-23T18:04:19.277Z,1.30
2022-08-23T18:06:47.766Z,1.13
2022-08-23T18:09:16.634Z,1.30
2022-08-23T18:11:47.413Z,1.10
2022-08-23T18:14:15.934Z,1.40
2022-08-23T18:16:45.502Z,1.17
2022-08-23T18:19:15.589Z,1.05
2022-08-23T18:21:44.904Z,1.35
2022-08-23T18:24:13.376Z,1.00
2022-08-23T18:26:59.002Z,1.58
2022-08-23T18:29:27.573Z,1.30
2022-08-23T18:31:55.965Z,0.90
2022-08-23T18:34:25.797Z,1.30
2022-08-23T18:36:54.692Z,1.10
2022-08-23T18:39:31.535Z,1.10
2022-08-23T18:42:01.555Z,0.93
2022-08-23T18:44:30.237Z,0.90
2022-08-23T18:46:59.536Z,1.10
2022-08-23T18:49:29.941Z,1.00
2022-08-23T18:51:58.291Z,1.05
2022-08-23T18:54:28.867Z,1.00
2022-08-23T18:56:59.201Z,1.15
2022-08-23T18:59:27.578Z,1.10
2022-08-23T19:01:56.265Z,0.95
2022-08-23T19:04:24.734Z,0.82
2022-08-23T19:06:54.588Z,1.00
2022-08-23T19:09:23.340Z,1.05
2022-08-23T19:11:51.626Z,0.80
2022-08-23T19:14:20.180Z,1.08
2022-08-23T19:16:48.973Z,1.05
2022-08-23T19:19:18.843Z,0.90
2022-08-23T19:21:47.277Z,1.00
2022-08-23T19:24:17.502Z,1.10
2022-08-23T19:26:47.721Z,1.10
2022-08-23T19:29:18.672Z,1.02
2022-08-23T19:31:48.326Z,1.10
2022-08-23T19:34:17.691Z,1.10
2022-08-23T19:36:51.217Z,1.00
2022-08-23T19:39:26.795Z,1.10
2022-08-23T19:41:55.338Z,1.08
2022-08-23T19:44:23.763Z,1.00
2022-08-23T19:46:52.478Z,0.95
2022-08-23T19:49:20.749Z,1.00
2022-08-23T19:51:49.062Z,0.85
2022-08-23T19:54:17.490Z,0.90
2022-08-23T19:56:49.701Z,1.00
2022-08-23T19:59:20.756Z,0.90
2022-08-23T20:01:50.277Z,1.10
2022-08-23T20:04:19.385Z,1.17
2022-08-23T20:06:48.833Z,0.90
2022-08-23T20:09:18.958Z,1.00
2022-08-23T20:11:48.907Z,1.20
2022-08-23T20:14:17.277Z,1.10
2022-08-23T20:16:45.619Z,1.25
2022-08-23T20:19:15.308Z,0.90
2022-08-23T20:21:44.065Z,1.30
2022-08-23T20:24:12.852Z,1.00
2022-08-23T20:26:43.148Z,1.00
2022-08-23T20:29:16.982Z,0.95
2022-08-23T20:31:50.320Z,1.33
2022-08-23T20:34:18.714Z,0.90
2022-08-23T20:36:48.587Z,1.05
2022-08-23T20:39:21.814Z,0.98
2022-08-23T20:41:52.999Z,1.00
2022-08-23T20:44:23.746Z,1.10
2022-08-23T20:46:54.898Z,1.00
2022-08-23T20:49:26.276Z,1.00
2022-08-23T20:51:54.561Z,0.82
2022-08-23T20:54:23.790Z,1.10
2022-08-23T20:56:53.522Z,0.95
2022-08-23T20:59:23.519Z,0.88
2022-08-23T21:01:52.925Z,1.10
2022-08-23T21:04:21.997Z,0.90
2022-08-23T21:06:59.682Z,1.40
2022-08-23T21:09:29.279Z,1.02
2022-08-23T21:11:58.447Z,1.20
2022-08-23T21:14:28.144Z,1.38
2022-08-23T21:16:56.581Z,0.80
2022-08-23T21:19:25.859Z,1.02
2022-08-23T21:21:54.166Z,0.80
2022-08-23T21:24:22.590Z,0.95
2022-08-23T21:26:51.498Z,1.00
2022-08-23T21:29:19.753Z,0.95
2022-08-23T21:31:49.616Z,1.10
2022-08-23T21:34:18.489Z,1.00
2022-08-23T21:36:47.789Z,0.95
2022-08-23T21:39:16.101Z,1.00
2022-08-23T21:41:46.190Z,1.10
2022-08-23T21:44:16.512Z,1.10
2022-08-23T21:46:45.212Z,1.00
2022-08-23T21:49:16.263Z,1.20
2022-08-23T21:51:45.936Z,1.13
2022-08-23T21:54:15.778Z,1.07
2022-08-23T21:56:44.349Z,1.37
2022-08-23T21:59:15.389Z,1.10
2022-08-23T22:01:44.211Z,1.00
2022-08-23T22:04:15.462Z,1.30
2022-08-23T22:06:45.629Z,1.10
2022-08-23T22:09:16.265Z,1.43
2022-08-23T22:11:46.632Z,1.27
2022-08-23T22:14:20.202Z,1.20
2022-08-23T22:16:49.756Z,1.30
2022-08-23T22:19:25.371Z,1.10
2022-08-23T22:21:54.321Z,1.10
2022-08-23T22:24:25.776Z,1.30
2022-08-23T22:26:54.663Z,1.30
2022-08-23T22:29:23.379Z,1.00
2022-08-23T22:31:51.836Z,1.17
2022-08-23T22:34:20.183Z,1.33
2022-08-23T22:36:52.065Z,1.10
2022-08-23T22:39:21.377Z,1.47
2022-08-23T22:41:50.259Z,0.90
2022-08-23T22:44:19.061Z,1.00
2022-08-23T22:46:48.665Z,1.30
2022-08-23T22:49:17.323Z,1.10
2022-08-23T22:51:45.549Z,1.57
2022-08-23T22:54:15.601Z,1.20
2022-08-23T22:56:46.477Z,1.20
2022-08-23T22:59:16.007Z,1.30
2022-08-23T23:01:46.764Z,1.10
2022-08-23T23:04:17.741Z,1.20
2022-08-23T23:06:46.278Z,1.30
2022-08-23T23:09:16.484Z,1.10
2022-08-23T23:11:45.677Z,1.20
2022-08-23T23:14:15.191Z,1.40
2022-08-23T23:16:46.796Z,1.70
2022-08-23T23:19:32.742Z,1.30
2022-08-23T23:22:01.546Z,1.00
2022-08-23T23:24:34.546Z,1.20
2022-08-23T23:27:03.698Z,1.20
2022-08-23T23:29:32.976Z,1.30
2022-08-23T23:32:01.598Z,1.20
2022-08-23T23:34:29.877Z,1.20
2022-08-23T23:36:58.511Z,1.00
2022-08-23T23:39:27.654Z,1.10
2022-08-23T23:41:57.640Z,1.20
2022-08-23T23:44:31.120Z,1.17
2022-08-23T23:47:01.698Z,0.97
2022-08-23T23:49:32.871Z,1.27
2022-08-23T23:52:03.141Z,0.93
2022-08-23T23:54:31.892Z,1.30
2022-08-23T23:57:01.624Z,1.10
2022-08-23T23:59:30.015Z,1.00
